<?xml version="1.0" encoding="UTF-8" standalone="no" ?>
<gpx xmlns="http://www.topografix.com/GPX/1/1" xmlns:xsi="http://www.w3.org/2001/XMLSchema-instance" xsi:schemaLocation="http://www.topografix.com/GPX/1/1 http://www.topografix.com/GPX/1/1/gpx.xsd" version="1.1" creator="VisuGPX - https://www.visugpx.com">
  <metadata>
    <name>Marche Kirchberg</name>
    <desc><![CDATA[marche populaire Kirchberg]]></desc>
  </metadata>
  <trk>
    <name><![CDATA[Marche Kirchberg_1]]></name>
    <trkseg>
      <trkpt lat="47.79991" lon="6.94979">
        <ele>464.4</ele>
        <time>2014-09-14T11:22:04Z</time>
      </trkpt>
      <trkpt lat="47.79991" lon="6.94979">
        <ele>483.3</ele>
        <time>2014-09-14T11:22:08Z</time>
      </trkpt>
      <trkpt lat="47.79999" lon="6.94957">
        <ele>470.8</ele>
        <time>2014-09-14T11:22:26Z</time>
      </trkpt>
      <trkpt lat="47.79997" lon="6.94918">
        <ele>476</ele>
        <time>2014-09-14T11:22:55Z</time>
      </trkpt>
      <trkpt lat="47.79987" lon="6.94893">
        <ele>475.2</ele>
        <time>2014-09-14T11:23:08Z</time>
      </trkpt>
      <trkpt lat="47.7998" lon="6.94881">
        <ele>471.5</ele>
        <time>2014-09-14T11:23:21Z</time>
      </trkpt>
      <trkpt lat="47.79972" lon="6.94866">
        <ele>471.5</ele>
        <time>2014-09-14T11:23:41Z</time>
      </trkpt>
      <trkpt lat="47.79961" lon="6.94851">
        <ele>472.1</ele>
        <time>2014-09-14T11:23:55Z</time>
      </trkpt>
      <trkpt lat="47.79971" lon="6.9485">
        <ele>471.9</ele>
        <time>2014-09-14T11:24:05Z</time>
      </trkpt>
      <trkpt lat="47.79983" lon="6.94886">
        <ele>475.7</ele>
        <time>2014-09-14T11:24:31Z</time>
      </trkpt>
      <trkpt lat="47.80002" lon="6.94898">
        <ele>477.8</ele>
        <time>2014-09-14T11:24:52Z</time>
      </trkpt>
      <trkpt lat="47.80002" lon="6.94925">
        <ele>479.6</ele>
        <time>2014-09-14T11:25:10Z</time>
      </trkpt>
      <trkpt lat="47.80004" lon="6.94944">
        <ele>478.6</ele>
        <time>2014-09-14T11:25:23Z</time>
      </trkpt>
      <trkpt lat="47.80011" lon="6.9497">
        <ele>474.6</ele>
        <time>2014-09-14T11:25:35Z</time>
      </trkpt>
      <trkpt lat="47.80013" lon="6.94987">
        <ele>471.2</ele>
        <time>2014-09-14T11:25:43Z</time>
      </trkpt>
      <trkpt lat="47.80018" lon="6.95005">
        <ele>467.1</ele>
        <time>2014-09-14T11:25:53Z</time>
      </trkpt>
      <trkpt lat="47.80028" lon="6.95024">
        <ele>463.5</ele>
        <time>2014-09-14T11:26:05Z</time>
      </trkpt>
      <trkpt lat="47.80029" lon="6.95031">
        <ele>462.8</ele>
        <time>2014-09-14T11:26:09Z</time>
      </trkpt>
      <trkpt lat="47.80031" lon="6.95039">
        <ele>461.4</ele>
        <time>2014-09-14T11:26:15Z</time>
      </trkpt>
      <trkpt lat="47.80026" lon="6.95082">
        <ele>459.8</ele>
        <time>2014-09-14T11:26:53Z</time>
      </trkpt>
      <trkpt lat="47.80015" lon="6.95102">
        <ele>457.2</ele>
        <time>2014-09-14T11:27:09Z</time>
      </trkpt>
      <trkpt lat="47.8" lon="6.95123">
        <ele>454.6</ele>
        <time>2014-09-14T11:27:26Z</time>
      </trkpt>
      <trkpt lat="47.79991" lon="6.95147">
        <ele>451</ele>
        <time>2014-09-14T11:27:43Z</time>
      </trkpt>
      <trkpt lat="47.79984" lon="6.95169">
        <ele>448.9</ele>
        <time>2014-09-14T11:27:55Z</time>
      </trkpt>
      <trkpt lat="47.79974" lon="6.95191">
        <ele>448</ele>
        <time>2014-09-14T11:28:09Z</time>
      </trkpt>
      <trkpt lat="47.79962" lon="6.95208">
        <ele>446.1</ele>
        <time>2014-09-14T11:28:27Z</time>
      </trkpt>
      <trkpt lat="47.7995" lon="6.95237">
        <ele>444.1</ele>
        <time>2014-09-14T11:28:45Z</time>
      </trkpt>
      <trkpt lat="47.79935" lon="6.95259">
        <ele>440.3</ele>
        <time>2014-09-14T11:29:03Z</time>
      </trkpt>
      <trkpt lat="47.79929" lon="6.95294">
        <ele>439.9</ele>
        <time>2014-09-14T11:29:19Z</time>
      </trkpt>
      <trkpt lat="47.79929" lon="6.95329">
        <ele>438.8</ele>
        <time>2014-09-14T11:29:37Z</time>
      </trkpt>
      <trkpt lat="47.79924" lon="6.95357">
        <ele>436.4</ele>
        <time>2014-09-14T11:29:55Z</time>
      </trkpt>
      <trkpt lat="47.79913" lon="6.95378">
        <ele>432.9</ele>
        <time>2014-09-14T11:30:13Z</time>
      </trkpt>
      <trkpt lat="47.79909" lon="6.95399">
        <ele>431.1</ele>
        <time>2014-09-14T11:30:27Z</time>
      </trkpt>
      <trkpt lat="47.79895" lon="6.95434">
        <ele>430.1</ele>
        <time>2014-09-14T11:30:46Z</time>
      </trkpt>
      <trkpt lat="47.79885" lon="6.95451">
        <ele>428.1</ele>
        <time>2014-09-14T11:30:59Z</time>
      </trkpt>
      <trkpt lat="47.79874" lon="6.95473">
        <ele>425.6</ele>
        <time>2014-09-14T11:31:15Z</time>
      </trkpt>
      <trkpt lat="47.79863" lon="6.95501">
        <ele>430.8</ele>
        <time>2014-09-14T11:31:33Z</time>
      </trkpt>
      <trkpt lat="47.79845" lon="6.95514">
        <ele>431.8</ele>
        <time>2014-09-14T11:31:50Z</time>
      </trkpt>
      <trkpt lat="47.79831" lon="6.95517">
        <ele>430.1</ele>
        <time>2014-09-14T11:32:03Z</time>
      </trkpt>
      <trkpt lat="47.79814" lon="6.95549">
        <ele>435</ele>
        <time>2014-09-14T11:32:21Z</time>
      </trkpt>
      <trkpt lat="47.79793" lon="6.95567">
        <ele>427.2</ele>
        <time>2014-09-14T11:32:38Z</time>
      </trkpt>
      <trkpt lat="47.79781" lon="6.95583">
        <ele>433.3</ele>
        <time>2014-09-14T11:32:48Z</time>
      </trkpt>
      <trkpt lat="47.79773" lon="6.95599">
        <ele>437.3</ele>
        <time>2014-09-14T11:33:03Z</time>
      </trkpt>
      <trkpt lat="47.79761" lon="6.9561">
        <ele>439</ele>
        <time>2014-09-14T11:33:15Z</time>
      </trkpt>
      <trkpt lat="47.79747" lon="6.95622">
        <ele>438.7</ele>
        <time>2014-09-14T11:33:27Z</time>
      </trkpt>
      <trkpt lat="47.79735" lon="6.95628">
        <ele>437.3</ele>
        <time>2014-09-14T11:33:40Z</time>
      </trkpt>
      <trkpt lat="47.79719" lon="6.95639">
        <ele>435.4</ele>
        <time>2014-09-14T11:33:58Z</time>
      </trkpt>
      <trkpt lat="47.797" lon="6.95655">
        <ele>434.1</ele>
        <time>2014-09-14T11:34:17Z</time>
      </trkpt>
      <trkpt lat="47.79682" lon="6.95665">
        <ele>432.7</ele>
        <time>2014-09-14T11:34:36Z</time>
      </trkpt>
      <trkpt lat="47.79666" lon="6.95686">
        <ele>432.6</ele>
        <time>2014-09-14T11:34:55Z</time>
      </trkpt>
      <trkpt lat="47.79653" lon="6.95697">
        <ele>434.6</ele>
        <time>2014-09-14T11:35:07Z</time>
      </trkpt>
      <trkpt lat="47.79637" lon="6.95718">
        <ele>435.6</ele>
        <time>2014-09-14T11:35:23Z</time>
      </trkpt>
      <trkpt lat="47.79624" lon="6.9573">
        <ele>437</ele>
        <time>2014-09-14T11:35:35Z</time>
      </trkpt>
      <trkpt lat="47.79608" lon="6.95755">
        <ele>439.2</ele>
        <time>2014-09-14T11:35:53Z</time>
      </trkpt>
      <trkpt lat="47.79599" lon="6.95783">
        <ele>442.7</ele>
        <time>2014-09-14T11:36:10Z</time>
      </trkpt>
      <trkpt lat="47.79592" lon="6.95805">
        <ele>443.9</ele>
        <time>2014-09-14T11:36:20Z</time>
      </trkpt>
      <trkpt lat="47.79584" lon="6.95823">
        <ele>444</ele>
        <time>2014-09-14T11:36:34Z</time>
      </trkpt>
      <trkpt lat="47.79573" lon="6.95839">
        <ele>443.8</ele>
        <time>2014-09-14T11:36:49Z</time>
      </trkpt>
      <trkpt lat="47.79563" lon="6.95858">
        <ele>441.7</ele>
        <time>2014-09-14T11:37:07Z</time>
      </trkpt>
      <trkpt lat="47.7954" lon="6.95893">
        <ele>438.3</ele>
        <time>2014-09-14T11:37:43Z</time>
      </trkpt>
      <trkpt lat="47.7953" lon="6.95911">
        <ele>436.1</ele>
        <time>2014-09-14T11:37:57Z</time>
      </trkpt>
      <trkpt lat="47.79515" lon="6.95951">
        <ele>436.7</ele>
        <time>2014-09-14T11:38:14Z</time>
      </trkpt>
      <trkpt lat="47.7951" lon="6.95967">
        <ele>433.8</ele>
        <time>2014-09-14T11:38:29Z</time>
      </trkpt>
      <trkpt lat="47.79494" lon="6.95981">
        <ele>433.1</ele>
        <time>2014-09-14T11:38:45Z</time>
      </trkpt>
      <trkpt lat="47.79477" lon="6.95993">
        <ele>433.1</ele>
        <time>2014-09-14T11:39:04Z</time>
      </trkpt>
      <trkpt lat="47.79461" lon="6.96">
        <ele>431.9</ele>
        <time>2014-09-14T11:39:21Z</time>
      </trkpt>
      <trkpt lat="47.79438" lon="6.9601">
        <ele>431.1</ele>
        <time>2014-09-14T11:39:41Z</time>
      </trkpt>
      <trkpt lat="47.79421" lon="6.96014">
        <ele>430.9</ele>
        <time>2014-09-14T11:39:55Z</time>
      </trkpt>
      <trkpt lat="47.79409" lon="6.96018">
        <ele>430</ele>
        <time>2014-09-14T11:40:05Z</time>
      </trkpt>
      <trkpt lat="47.79392" lon="6.96025">
        <ele>427.5</ele>
        <time>2014-09-14T11:40:21Z</time>
      </trkpt>
      <trkpt lat="47.79377" lon="6.96041">
        <ele>425.6</ele>
        <time>2014-09-14T11:40:39Z</time>
      </trkpt>
      <trkpt lat="47.79363" lon="6.9607">
        <ele>424.6</ele>
        <time>2014-09-14T11:40:57Z</time>
      </trkpt>
      <trkpt lat="47.79355" lon="6.961">
        <ele>422.4</ele>
        <time>2014-09-14T11:41:13Z</time>
      </trkpt>
      <trkpt lat="47.79333" lon="6.96116">
        <ele>422.5</ele>
        <time>2014-09-14T11:41:31Z</time>
      </trkpt>
      <trkpt lat="47.79323" lon="6.96107">
        <ele>421.7</ele>
        <time>2014-09-14T11:41:41Z</time>
      </trkpt>
      <trkpt lat="47.79311" lon="6.96096">
        <ele>420.2</ele>
        <time>2014-09-14T11:41:53Z</time>
      </trkpt>
      <trkpt lat="47.79289" lon="6.9609">
        <ele>416.9</ele>
        <time>2014-09-14T11:42:11Z</time>
      </trkpt>
      <trkpt lat="47.79271" lon="6.96092">
        <ele>415.3</ele>
        <time>2014-09-14T11:42:26Z</time>
      </trkpt>
      <trkpt lat="47.79253" lon="6.9608">
        <ele>414.2</ele>
        <time>2014-09-14T11:42:43Z</time>
      </trkpt>
      <trkpt lat="47.79228" lon="6.96077">
        <ele>419</ele>
        <time>2014-09-14T11:43:01Z</time>
      </trkpt>
      <trkpt lat="47.79213" lon="6.96082">
        <ele>419.7</ele>
        <time>2014-09-14T11:43:13Z</time>
      </trkpt>
      <trkpt lat="47.79195" lon="6.96083">
        <ele>421.7</ele>
        <time>2014-09-14T11:43:29Z</time>
      </trkpt>
      <trkpt lat="47.79182" lon="6.96076">
        <ele>420.3</ele>
        <time>2014-09-14T11:43:45Z</time>
      </trkpt>
      <trkpt lat="47.79157" lon="6.96059">
        <ele>419.4</ele>
        <time>2014-09-14T11:44:05Z</time>
      </trkpt>
      <trkpt lat="47.79147" lon="6.96052">
        <ele>420.4</ele>
        <time>2014-09-14T11:44:14Z</time>
      </trkpt>
      <trkpt lat="47.79135" lon="6.96038">
        <ele>420.3</ele>
        <time>2014-09-14T11:44:29Z</time>
      </trkpt>
      <trkpt lat="47.79114" lon="6.96027">
        <ele>421.7</ele>
        <time>2014-09-14T11:44:48Z</time>
      </trkpt>
      <trkpt lat="47.79084" lon="6.96022">
        <ele>425.7</ele>
        <time>2014-09-14T11:45:08Z</time>
      </trkpt>
      <trkpt lat="47.79062" lon="6.96025">
        <ele>426.5</ele>
        <time>2014-09-14T11:45:25Z</time>
      </trkpt>
      <trkpt lat="47.79045" lon="6.96033">
        <ele>428.6</ele>
        <time>2014-09-14T11:45:43Z</time>
      </trkpt>
      <trkpt lat="47.79032" lon="6.96036">
        <ele>428.9</ele>
        <time>2014-09-14T11:45:57Z</time>
      </trkpt>
      <trkpt lat="47.79014" lon="6.96051">
        <ele>429.2</ele>
        <time>2014-09-14T11:46:11Z</time>
      </trkpt>
      <trkpt lat="47.79002" lon="6.96055">
        <ele>428.5</ele>
        <time>2014-09-14T11:46:21Z</time>
      </trkpt>
      <trkpt lat="47.78981" lon="6.96062">
        <ele>426.6</ele>
        <time>2014-09-14T11:46:37Z</time>
      </trkpt>
      <trkpt lat="47.78963" lon="6.96064">
        <ele>425.9</ele>
        <time>2014-09-14T11:46:53Z</time>
      </trkpt>
      <trkpt lat="47.78944" lon="6.96065">
        <ele>426.3</ele>
        <time>2014-09-14T11:47:09Z</time>
      </trkpt>
      <trkpt lat="47.78928" lon="6.96063">
        <ele>426.2</ele>
        <time>2014-09-14T11:47:21Z</time>
      </trkpt>
      <trkpt lat="47.78912" lon="6.9607">
        <ele>423.5</ele>
        <time>2014-09-14T11:47:39Z</time>
      </trkpt>
      <trkpt lat="47.78902" lon="6.96077">
        <ele>423.3</ele>
        <time>2014-09-14T11:47:47Z</time>
      </trkpt>
      <trkpt lat="47.78892" lon="6.96088">
        <ele>423.2</ele>
        <time>2014-09-14T11:47:59Z</time>
      </trkpt>
      <trkpt lat="47.78876" lon="6.96101">
        <ele>424.4</ele>
        <time>2014-09-14T11:48:15Z</time>
      </trkpt>
      <trkpt lat="47.78858" lon="6.96115">
        <ele>425.1</ele>
        <time>2014-09-14T11:48:29Z</time>
      </trkpt>
      <trkpt lat="47.7884" lon="6.9612">
        <ele>425.7</ele>
        <time>2014-09-14T11:48:43Z</time>
      </trkpt>
      <trkpt lat="47.78823" lon="6.96127">
        <ele>425.4</ele>
        <time>2014-09-14T11:48:57Z</time>
      </trkpt>
      <trkpt lat="47.78806" lon="6.96126">
        <ele>423.4</ele>
        <time>2014-09-14T11:49:11Z</time>
      </trkpt>
      <trkpt lat="47.7879" lon="6.96118">
        <ele>425.9</ele>
        <time>2014-09-14T11:49:27Z</time>
      </trkpt>
      <trkpt lat="47.7878" lon="6.96108">
        <ele>427.3</ele>
        <time>2014-09-14T11:49:41Z</time>
      </trkpt>
      <trkpt lat="47.78773" lon="6.96108">
        <ele>429.9</ele>
        <time>2014-09-14T11:49:55Z</time>
      </trkpt>
      <trkpt lat="47.78767" lon="6.96107">
        <ele>432</ele>
        <time>2014-09-14T11:49:59Z</time>
      </trkpt>
      <trkpt lat="47.78768" lon="6.96108">
        <ele>432.7</ele>
        <time>2014-09-14T11:50:08Z</time>
      </trkpt>
      <trkpt lat="47.78748" lon="6.96089">
        <ele>438.1</ele>
        <time>2014-09-14T11:50:31Z</time>
      </trkpt>
      <trkpt lat="47.78735" lon="6.96087">
        <ele>439.3</ele>
        <time>2014-09-14T11:50:47Z</time>
      </trkpt>
      <trkpt lat="47.78736" lon="6.96097">
        <ele>441.9</ele>
        <time>2014-09-14T11:51:08Z</time>
      </trkpt>
      <trkpt lat="47.7874" lon="6.96098">
        <ele>442</ele>
        <time>2014-09-14T11:51:11Z</time>
      </trkpt>
      <trkpt lat="47.78736" lon="6.96097">
        <ele>441.9</ele>
        <time>2014-09-14T11:51:20Z</time>
      </trkpt>
      <trkpt lat="47.78718" lon="6.96094">
        <ele>443.6</ele>
        <time>2014-09-14T11:51:33Z</time>
      </trkpt>
      <trkpt lat="47.78699" lon="6.96096">
        <ele>442.9</ele>
        <time>2014-09-14T11:51:47Z</time>
      </trkpt>
      <trkpt lat="47.78689" lon="6.96104">
        <ele>443</ele>
        <time>2014-09-14T11:52:01Z</time>
      </trkpt>
      <trkpt lat="47.78673" lon="6.96119">
        <ele>440.7</ele>
        <time>2014-09-14T11:52:19Z</time>
      </trkpt>
      <trkpt lat="47.78655" lon="6.96122">
        <ele>440.2</ele>
        <time>2014-09-14T11:52:36Z</time>
      </trkpt>
      <trkpt lat="47.78638" lon="6.96135">
        <ele>440.2</ele>
        <time>2014-09-14T11:52:51Z</time>
      </trkpt>
      <trkpt lat="47.78629" lon="6.96147">
        <ele>440.6</ele>
        <time>2014-09-14T11:53:01Z</time>
      </trkpt>
      <trkpt lat="47.7862" lon="6.96164">
        <ele>444.1</ele>
        <time>2014-09-14T11:53:19Z</time>
      </trkpt>
      <trkpt lat="47.78606" lon="6.96176">
        <ele>446.5</ele>
        <time>2014-09-14T11:53:36Z</time>
      </trkpt>
      <trkpt lat="47.78589" lon="6.96189">
        <ele>445.3</ele>
        <time>2014-09-14T11:53:55Z</time>
      </trkpt>
      <trkpt lat="47.78571" lon="6.96203">
        <ele>443.4</ele>
        <time>2014-09-14T11:54:15Z</time>
      </trkpt>
      <trkpt lat="47.78571" lon="6.96203">
        <ele>443.4</ele>
        <time>2014-09-14T11:54:23Z</time>
      </trkpt>
      <trkpt lat="47.78571" lon="6.96203">
        <ele>443.4</ele>
        <time>2014-09-14T11:54:25Z</time>
      </trkpt>
      <trkpt lat="47.78556" lon="6.9622">
        <ele>438.9</ele>
        <time>2014-09-14T11:54:41Z</time>
      </trkpt>
      <trkpt lat="47.78547" lon="6.96231">
        <ele>438.3</ele>
        <time>2014-09-14T11:54:56Z</time>
      </trkpt>
      <trkpt lat="47.78541" lon="6.96259">
        <ele>439.3</ele>
        <time>2014-09-14T11:55:12Z</time>
      </trkpt>
      <trkpt lat="47.78526" lon="6.9628">
        <ele>436.6</ele>
        <time>2014-09-14T11:55:31Z</time>
      </trkpt>
      <trkpt lat="47.78509" lon="6.96313">
        <ele>436.2</ele>
        <time>2014-09-14T11:56:08Z</time>
      </trkpt>
      <trkpt lat="47.78498" lon="6.96327">
        <ele>438.7</ele>
        <time>2014-09-14T11:56:24Z</time>
      </trkpt>
      <trkpt lat="47.78489" lon="6.96346">
        <ele>440.3</ele>
        <time>2014-09-14T11:56:35Z</time>
      </trkpt>
      <trkpt lat="47.78481" lon="6.96365">
        <ele>439.7</ele>
        <time>2014-09-14T11:56:47Z</time>
      </trkpt>
      <trkpt lat="47.78469" lon="6.96381">
        <ele>441.8</ele>
        <time>2014-09-14T11:57:03Z</time>
      </trkpt>
      <trkpt lat="47.78457" lon="6.96413">
        <ele>444.1</ele>
        <time>2014-09-14T11:57:26Z</time>
      </trkpt>
      <trkpt lat="47.7843" lon="6.96451">
        <ele>463.7</ele>
        <time>2014-09-14T11:59:08Z</time>
      </trkpt>
      <trkpt lat="47.78428" lon="6.96463">
        <ele>461.6</ele>
        <time>2014-09-14T11:59:15Z</time>
      </trkpt>
      <trkpt lat="47.78425" lon="6.96491">
        <ele>459.5</ele>
        <time>2014-09-14T11:59:29Z</time>
      </trkpt>
      <trkpt lat="47.78425" lon="6.96512">
        <ele>458.8</ele>
        <time>2014-09-14T11:59:41Z</time>
      </trkpt>
      <trkpt lat="47.78422" lon="6.9654">
        <ele>456.5</ele>
        <time>2014-09-14T11:59:57Z</time>
      </trkpt>
      <trkpt lat="47.78415" lon="6.96561">
        <ele>455.3</ele>
        <time>2014-09-14T12:00:11Z</time>
      </trkpt>
      <trkpt lat="47.7841" lon="6.96583">
        <ele>453.2</ele>
        <time>2014-09-14T12:00:25Z</time>
      </trkpt>
      <trkpt lat="47.78398" lon="6.96593">
        <ele>450.2</ele>
        <time>2014-09-14T12:00:43Z</time>
      </trkpt>
      <trkpt lat="47.78374" lon="6.96593">
        <ele>447.2</ele>
        <time>2014-09-14T12:01:02Z</time>
      </trkpt>
      <trkpt lat="47.78353" lon="6.96615">
        <ele>442.4</ele>
        <time>2014-09-14T12:01:23Z</time>
      </trkpt>
      <trkpt lat="47.78353" lon="6.96615">
        <ele>442.4</ele>
        <time>2014-09-14T12:01:31Z</time>
      </trkpt>
      <trkpt lat="47.78353" lon="6.96615">
        <ele>442.4</ele>
        <time>2014-09-14T12:01:33Z</time>
      </trkpt>
      <trkpt lat="47.78361" lon="6.96646">
        <ele>440.4</ele>
        <time>2014-09-14T12:01:59Z</time>
      </trkpt>
      <trkpt lat="47.78368" lon="6.96673">
        <ele>439.3</ele>
        <time>2014-09-14T12:02:17Z</time>
      </trkpt>
      <trkpt lat="47.78379" lon="6.96695">
        <ele>437.5</ele>
        <time>2014-09-14T12:02:30Z</time>
      </trkpt>
      <trkpt lat="47.78384" lon="6.96712">
        <ele>436.9</ele>
        <time>2014-09-14T12:02:41Z</time>
      </trkpt>
      <trkpt lat="47.78393" lon="6.96733">
        <ele>436.8</ele>
        <time>2014-09-14T12:02:57Z</time>
      </trkpt>
      <trkpt lat="47.78395" lon="6.96769">
        <ele>428.8</ele>
        <time>2014-09-14T12:03:19Z</time>
      </trkpt>
      <trkpt lat="47.78389" lon="6.96794">
        <ele>426.4</ele>
        <time>2014-09-14T12:03:35Z</time>
      </trkpt>
      <trkpt lat="47.78376" lon="6.96815">
        <ele>425.9</ele>
        <time>2014-09-14T12:03:53Z</time>
      </trkpt>
      <trkpt lat="47.78371" lon="6.96822">
        <ele>425</ele>
        <time>2014-09-14T12:04:00Z</time>
      </trkpt>
      <trkpt lat="47.78366" lon="6.96835">
        <ele>424</ele>
        <time>2014-09-14T12:04:15Z</time>
      </trkpt>
      <trkpt lat="47.78359" lon="6.96862">
        <ele>423.7</ele>
        <time>2014-09-14T12:04:31Z</time>
      </trkpt>
      <trkpt lat="47.78368" lon="6.96868">
        <ele>423.8</ele>
        <time>2014-09-14T12:04:45Z</time>
      </trkpt>
      <trkpt lat="47.78399" lon="6.96876">
        <ele>424.1</ele>
        <time>2014-09-14T12:05:05Z</time>
      </trkpt>
      <trkpt lat="47.7842" lon="6.96874">
        <ele>419.6</ele>
        <time>2014-09-14T12:05:21Z</time>
      </trkpt>
      <trkpt lat="47.78425" lon="6.96852">
        <ele>418.3</ele>
        <time>2014-09-14T12:05:35Z</time>
      </trkpt>
      <trkpt lat="47.78427" lon="6.96827">
        <ele>416.8</ele>
        <time>2014-09-14T12:05:49Z</time>
      </trkpt>
      <trkpt lat="47.78432" lon="6.96809">
        <ele>415.7</ele>
        <time>2014-09-14T12:06:01Z</time>
      </trkpt>
      <trkpt lat="47.78438" lon="6.96785">
        <ele>412.7</ele>
        <time>2014-09-14T12:06:17Z</time>
      </trkpt>
      <trkpt lat="47.78452" lon="6.96761">
        <ele>408.5</ele>
        <time>2014-09-14T12:06:33Z</time>
      </trkpt>
      <trkpt lat="47.78458" lon="6.96741">
        <ele>409.3</ele>
        <time>2014-09-14T12:06:45Z</time>
      </trkpt>
      <trkpt lat="47.78465" lon="6.96721">
        <ele>408.7</ele>
        <time>2014-09-14T12:06:57Z</time>
      </trkpt>
      <trkpt lat="47.78469" lon="6.96696">
        <ele>408.4</ele>
        <time>2014-09-14T12:07:13Z</time>
      </trkpt>
      <trkpt lat="47.78477" lon="6.96671">
        <ele>409</ele>
        <time>2014-09-14T12:07:24Z</time>
      </trkpt>
      <trkpt lat="47.78488" lon="6.96658">
        <ele>409.7</ele>
        <time>2014-09-14T12:07:38Z</time>
      </trkpt>
      <trkpt lat="47.78491" lon="6.96651">
        <ele>410.3</ele>
        <time>2014-09-14T12:07:41Z</time>
      </trkpt>
      <trkpt lat="47.785" lon="6.96647">
        <ele>409.4</ele>
        <time>2014-09-14T12:07:53Z</time>
      </trkpt>
      <trkpt lat="47.78517" lon="6.96633">
        <ele>408.8</ele>
        <time>2014-09-14T12:08:08Z</time>
      </trkpt>
      <trkpt lat="47.78533" lon="6.96613">
        <ele>406.6</ele>
        <time>2014-09-14T12:08:25Z</time>
      </trkpt>
      <trkpt lat="47.78549" lon="6.96599">
        <ele>406.6</ele>
        <time>2014-09-14T12:08:39Z</time>
      </trkpt>
      <trkpt lat="47.78581" lon="6.96572">
        <ele>407</ele>
        <time>2014-09-14T12:08:55Z</time>
      </trkpt>
      <trkpt lat="47.78583" lon="6.9657">
        <ele>406.5</ele>
        <time>2014-09-14T12:09:01Z</time>
      </trkpt>
      <trkpt lat="47.78587" lon="6.96552">
        <ele>404.2</ele>
        <time>2014-09-14T12:09:12Z</time>
      </trkpt>
      <trkpt lat="47.78594" lon="6.9654">
        <ele>399.6</ele>
        <time>2014-09-14T12:09:23Z</time>
      </trkpt>
      <trkpt lat="47.78589" lon="6.96517">
        <ele>406.8</ele>
        <time>2014-09-14T12:09:42Z</time>
      </trkpt>
      <trkpt lat="47.78602" lon="6.96506">
        <ele>405.3</ele>
        <time>2014-09-14T12:10:00Z</time>
      </trkpt>
      <trkpt lat="47.7862" lon="6.96504">
        <ele>405.4</ele>
        <time>2014-09-14T12:10:16Z</time>
      </trkpt>
      <trkpt lat="47.78643" lon="6.96515">
        <ele>408.7</ele>
        <time>2014-09-14T12:10:26Z</time>
      </trkpt>
      <trkpt lat="47.78657" lon="6.96526">
        <ele>409.5</ele>
        <time>2014-09-14T12:10:34Z</time>
      </trkpt>
      <trkpt lat="47.7867" lon="6.96542">
        <ele>408.6</ele>
        <time>2014-09-14T12:10:43Z</time>
      </trkpt>
      <trkpt lat="47.7868" lon="6.96557">
        <ele>407.4</ele>
        <time>2014-09-14T12:10:53Z</time>
      </trkpt>
      <trkpt lat="47.78698" lon="6.96584">
        <ele>410.8</ele>
        <time>2014-09-14T12:11:13Z</time>
      </trkpt>
      <trkpt lat="47.78704" lon="6.96595">
        <ele>413.4</ele>
        <time>2014-09-14T12:11:24Z</time>
      </trkpt>
      <trkpt lat="47.78704" lon="6.96595">
        <ele>413.4</ele>
        <time>2014-09-14T12:11:31Z</time>
      </trkpt>
      <trkpt lat="47.78704" lon="6.96595">
        <ele>413.4</ele>
        <time>2014-09-14T12:11:32Z</time>
      </trkpt>
      <trkpt lat="47.78731" lon="6.96597">
        <ele>421.9</ele>
        <time>2014-09-14T12:12:09Z</time>
      </trkpt>
      <trkpt lat="47.78744" lon="6.96588">
        <ele>419.2</ele>
        <time>2014-09-14T12:12:23Z</time>
      </trkpt>
      <trkpt lat="47.7876" lon="6.9657">
        <ele>418.2</ele>
        <time>2014-09-14T12:12:36Z</time>
      </trkpt>
      <trkpt lat="47.78775" lon="6.96555">
        <ele>421</ele>
        <time>2014-09-14T12:12:48Z</time>
      </trkpt>
      <trkpt lat="47.78783" lon="6.96545">
        <ele>423</ele>
        <time>2014-09-14T12:12:56Z</time>
      </trkpt>
      <trkpt lat="47.78798" lon="6.96531">
        <ele>422.3</ele>
        <time>2014-09-14T12:13:09Z</time>
      </trkpt>
      <trkpt lat="47.78811" lon="6.96521">
        <ele>422.6</ele>
        <time>2014-09-14T12:13:21Z</time>
      </trkpt>
      <trkpt lat="47.78822" lon="6.96513">
        <ele>423.2</ele>
        <time>2014-09-14T12:13:34Z</time>
      </trkpt>
      <trkpt lat="47.78841" lon="6.96497">
        <ele>425.8</ele>
        <time>2014-09-14T12:13:50Z</time>
      </trkpt>
      <trkpt lat="47.78854" lon="6.96486">
        <ele>429</ele>
        <time>2014-09-14T12:14:00Z</time>
      </trkpt>
      <trkpt lat="47.78874" lon="6.96477">
        <ele>431.4</ele>
        <time>2014-09-14T12:14:16Z</time>
      </trkpt>
      <trkpt lat="47.78887" lon="6.96471">
        <ele>431.2</ele>
        <time>2014-09-14T12:14:27Z</time>
      </trkpt>
      <trkpt lat="47.78908" lon="6.96459">
        <ele>430.3</ele>
        <time>2014-09-14T12:14:46Z</time>
      </trkpt>
      <trkpt lat="47.78926" lon="6.96447">
        <ele>431</ele>
        <time>2014-09-14T12:15:02Z</time>
      </trkpt>
      <trkpt lat="47.78946" lon="6.96429">
        <ele>432.3</ele>
        <time>2014-09-14T12:15:19Z</time>
      </trkpt>
      <trkpt lat="47.78965" lon="6.9642">
        <ele>433.5</ele>
        <time>2014-09-14T12:15:34Z</time>
      </trkpt>
      <trkpt lat="47.7898" lon="6.96409">
        <ele>433.3</ele>
        <time>2014-09-14T12:15:47Z</time>
      </trkpt>
      <trkpt lat="47.78993" lon="6.96402">
        <ele>433.3</ele>
        <time>2014-09-14T12:15:59Z</time>
      </trkpt>
      <trkpt lat="47.79009" lon="6.96393">
        <ele>432.1</ele>
        <time>2014-09-14T12:16:12Z</time>
      </trkpt>
      <trkpt lat="47.79024" lon="6.96384">
        <ele>430</ele>
        <time>2014-09-14T12:16:26Z</time>
      </trkpt>
      <trkpt lat="47.79041" lon="6.96369">
        <ele>430.8</ele>
        <time>2014-09-14T12:16:43Z</time>
      </trkpt>
      <trkpt lat="47.79058" lon="6.96354">
        <ele>431.2</ele>
        <time>2014-09-14T12:17:00Z</time>
      </trkpt>
      <trkpt lat="47.79078" lon="6.96345">
        <ele>432.9</ele>
        <time>2014-09-14T12:17:16Z</time>
      </trkpt>
      <trkpt lat="47.79088" lon="6.96341">
        <ele>433.6</ele>
        <time>2014-09-14T12:17:24Z</time>
      </trkpt>
      <trkpt lat="47.79094" lon="6.96338">
        <ele>433</ele>
        <time>2014-09-14T12:17:37Z</time>
      </trkpt>
      <trkpt lat="47.79108" lon="6.96332">
        <ele>431.8</ele>
        <time>2014-09-14T12:17:50Z</time>
      </trkpt>
      <trkpt lat="47.7912" lon="6.96329">
        <ele>431.6</ele>
        <time>2014-09-14T12:18:01Z</time>
      </trkpt>
      <trkpt lat="47.79135" lon="6.96318">
        <ele>431.9</ele>
        <time>2014-09-14T12:18:14Z</time>
      </trkpt>
      <trkpt lat="47.79153" lon="6.96305">
        <ele>432.3</ele>
        <time>2014-09-14T12:18:31Z</time>
      </trkpt>
      <trkpt lat="47.79172" lon="6.96297">
        <ele>432.6</ele>
        <time>2014-09-14T12:18:48Z</time>
      </trkpt>
      <trkpt lat="47.79189" lon="6.96289">
        <ele>433.5</ele>
        <time>2014-09-14T12:19:02Z</time>
      </trkpt>
      <trkpt lat="47.792" lon="6.96281">
        <ele>434.6</ele>
        <time>2014-09-14T12:19:11Z</time>
      </trkpt>
      <trkpt lat="47.79209" lon="6.96275">
        <ele>434.9</ele>
        <time>2014-09-14T12:19:18Z</time>
      </trkpt>
      <trkpt lat="47.79213" lon="6.96274">
        <ele>435.1</ele>
        <time>2014-09-14T12:19:21Z</time>
      </trkpt>
      <trkpt lat="47.79218" lon="6.96268">
        <ele>436.2</ele>
        <time>2014-09-14T12:19:29Z</time>
      </trkpt>
      <trkpt lat="47.79228" lon="6.96264">
        <ele>437.9</ele>
        <time>2014-09-14T12:19:37Z</time>
      </trkpt>
      <trkpt lat="47.7924" lon="6.96258">
        <ele>438.5</ele>
        <time>2014-09-14T12:19:48Z</time>
      </trkpt>
      <trkpt lat="47.79259" lon="6.96251">
        <ele>439.4</ele>
        <time>2014-09-14T12:20:02Z</time>
      </trkpt>
      <trkpt lat="47.7927" lon="6.9624">
        <ele>436.9</ele>
        <time>2014-09-14T12:20:13Z</time>
      </trkpt>
      <trkpt lat="47.79289" lon="6.96227">
        <ele>436.8</ele>
        <time>2014-09-14T12:20:29Z</time>
      </trkpt>
      <trkpt lat="47.79303" lon="6.96222">
        <ele>436</ele>
        <time>2014-09-14T12:20:41Z</time>
      </trkpt>
      <trkpt lat="47.79318" lon="6.96217">
        <ele>432.9</ele>
        <time>2014-09-14T12:20:56Z</time>
      </trkpt>
      <trkpt lat="47.79328" lon="6.96209">
        <ele>437.4</ele>
        <time>2014-09-14T12:21:09Z</time>
      </trkpt>
      <trkpt lat="47.79343" lon="6.96208">
        <ele>435.6</ele>
        <time>2014-09-14T12:21:24Z</time>
      </trkpt>
      <trkpt lat="47.7936" lon="6.96215">
        <ele>432.3</ele>
        <time>2014-09-14T12:21:39Z</time>
      </trkpt>
      <trkpt lat="47.79379" lon="6.96206">
        <ele>431.4</ele>
        <time>2014-09-14T12:21:54Z</time>
      </trkpt>
      <trkpt lat="47.79388" lon="6.96197">
        <ele>434.6</ele>
        <time>2014-09-14T12:22:00Z</time>
      </trkpt>
      <trkpt lat="47.79402" lon="6.96193">
        <ele>437.9</ele>
        <time>2014-09-14T12:22:10Z</time>
      </trkpt>
      <trkpt lat="47.79424" lon="6.96188">
        <ele>445.8</ele>
        <time>2014-09-14T12:22:24Z</time>
      </trkpt>
      <trkpt lat="47.79441" lon="6.96201">
        <ele>448.6</ele>
        <time>2014-09-14T12:22:37Z</time>
      </trkpt>
      <trkpt lat="47.79459" lon="6.96213">
        <ele>445.8</ele>
        <time>2014-09-14T12:22:53Z</time>
      </trkpt>
      <trkpt lat="47.79479" lon="6.96226">
        <ele>444</ele>
        <time>2014-09-14T12:23:11Z</time>
      </trkpt>
      <trkpt lat="47.79496" lon="6.96233">
        <ele>441.7</ele>
        <time>2014-09-14T12:23:25Z</time>
      </trkpt>
      <trkpt lat="47.79514" lon="6.96241">
        <ele>438</ele>
        <time>2014-09-14T12:23:40Z</time>
      </trkpt>
      <trkpt lat="47.79533" lon="6.96246">
        <ele>430.9</ele>
        <time>2014-09-14T12:23:57Z</time>
      </trkpt>
      <trkpt lat="47.79549" lon="6.96249">
        <ele>425.8</ele>
        <time>2014-09-14T12:24:11Z</time>
      </trkpt>
      <trkpt lat="47.79573" lon="6.96255">
        <ele>421.9</ele>
        <time>2014-09-14T12:24:30Z</time>
      </trkpt>
      <trkpt lat="47.79596" lon="6.9624">
        <ele>430.8</ele>
        <time>2014-09-14T12:24:45Z</time>
      </trkpt>
      <trkpt lat="47.79611" lon="6.96244">
        <ele>432.1</ele>
        <time>2014-09-14T12:24:57Z</time>
      </trkpt>
      <trkpt lat="47.79628" lon="6.96242">
        <ele>428.7</ele>
        <time>2014-09-14T12:25:14Z</time>
      </trkpt>
      <trkpt lat="47.79648" lon="6.96243">
        <ele>428.6</ele>
        <time>2014-09-14T12:25:30Z</time>
      </trkpt>
      <trkpt lat="47.7967" lon="6.96247">
        <ele>426.4</ele>
        <time>2014-09-14T12:25:48Z</time>
      </trkpt>
      <trkpt lat="47.79686" lon="6.96241">
        <ele>424.9</ele>
        <time>2014-09-14T12:26:05Z</time>
      </trkpt>
      <trkpt lat="47.79704" lon="6.96223">
        <ele>426.4</ele>
        <time>2014-09-14T12:26:23Z</time>
      </trkpt>
      <trkpt lat="47.79728" lon="6.96219">
        <ele>428</ele>
        <time>2014-09-14T12:26:39Z</time>
      </trkpt>
      <trkpt lat="47.79745" lon="6.96215">
        <ele>429.6</ele>
        <time>2014-09-14T12:26:52Z</time>
      </trkpt>
      <trkpt lat="47.79764" lon="6.96205">
        <ele>429.5</ele>
        <time>2014-09-14T12:27:05Z</time>
      </trkpt>
      <trkpt lat="47.79779" lon="6.96195">
        <ele>432.8</ele>
        <time>2014-09-14T12:27:15Z</time>
      </trkpt>
      <trkpt lat="47.7979" lon="6.96186">
        <ele>433.8</ele>
        <time>2014-09-14T12:27:24Z</time>
      </trkpt>
      <trkpt lat="47.79803" lon="6.96178">
        <ele>434.7</ele>
        <time>2014-09-14T12:27:35Z</time>
      </trkpt>
      <trkpt lat="47.79819" lon="6.96167">
        <ele>435.1</ele>
        <time>2014-09-14T12:27:48Z</time>
      </trkpt>
      <trkpt lat="47.79839" lon="6.96152">
        <ele>436</ele>
        <time>2014-09-14T12:28:04Z</time>
      </trkpt>
      <trkpt lat="47.79855" lon="6.96135">
        <ele>435.2</ele>
        <time>2014-09-14T12:28:20Z</time>
      </trkpt>
      <trkpt lat="47.79866" lon="6.96122">
        <ele>435.2</ele>
        <time>2014-09-14T12:28:32Z</time>
      </trkpt>
      <trkpt lat="47.79881" lon="6.96104">
        <ele>435.1</ele>
        <time>2014-09-14T12:28:48Z</time>
      </trkpt>
      <trkpt lat="47.79897" lon="6.96087">
        <ele>437.1</ele>
        <time>2014-09-14T12:29:05Z</time>
      </trkpt>
      <trkpt lat="47.79907" lon="6.96062">
        <ele>437.6</ele>
        <time>2014-09-14T12:29:20Z</time>
      </trkpt>
      <trkpt lat="47.79922" lon="6.96043">
        <ele>438.4</ele>
        <time>2014-09-14T12:29:36Z</time>
      </trkpt>
      <trkpt lat="47.79928" lon="6.96024">
        <ele>438.6</ele>
        <time>2014-09-14T12:29:49Z</time>
      </trkpt>
      <trkpt lat="47.79935" lon="6.96001">
        <ele>437.4</ele>
        <time>2014-09-14T12:30:03Z</time>
      </trkpt>
      <trkpt lat="47.79945" lon="6.95983">
        <ele>435.9</ele>
        <time>2014-09-14T12:30:16Z</time>
      </trkpt>
      <trkpt lat="47.79952" lon="6.95968">
        <ele>435.5</ele>
        <time>2014-09-14T12:30:26Z</time>
      </trkpt>
      <trkpt lat="47.79959" lon="6.95944">
        <ele>434.5</ele>
        <time>2014-09-14T12:30:40Z</time>
      </trkpt>
      <trkpt lat="47.79967" lon="6.95914">
        <ele>436.2</ele>
        <time>2014-09-14T12:30:55Z</time>
      </trkpt>
      <trkpt lat="47.79976" lon="6.95895">
        <ele>435.2</ele>
        <time>2014-09-14T12:31:08Z</time>
      </trkpt>
      <trkpt lat="47.79979" lon="6.95875">
        <ele>436.7</ele>
        <time>2014-09-14T12:31:19Z</time>
      </trkpt>
      <trkpt lat="47.79987" lon="6.95861">
        <ele>437.7</ele>
        <time>2014-09-14T12:31:29Z</time>
      </trkpt>
      <trkpt lat="47.79995" lon="6.95847">
        <ele>436.3</ele>
        <time>2014-09-14T12:31:40Z</time>
      </trkpt>
      <trkpt lat="47.80004" lon="6.95823">
        <ele>436.3</ele>
        <time>2014-09-14T12:31:55Z</time>
      </trkpt>
      <trkpt lat="47.8001" lon="6.95792">
        <ele>436.5</ele>
        <time>2014-09-14T12:32:12Z</time>
      </trkpt>
      <trkpt lat="47.80017" lon="6.95774">
        <ele>436.7</ele>
        <time>2014-09-14T12:32:24Z</time>
      </trkpt>
      <trkpt lat="47.80025" lon="6.9575">
        <ele>436.8</ele>
        <time>2014-09-14T12:32:40Z</time>
      </trkpt>
      <trkpt lat="47.80033" lon="6.95724">
        <ele>436.9</ele>
        <time>2014-09-14T12:32:55Z</time>
      </trkpt>
      <trkpt lat="47.80039" lon="6.95704">
        <ele>436.6</ele>
        <time>2014-09-14T12:33:07Z</time>
      </trkpt>
      <trkpt lat="47.80047" lon="6.95684">
        <ele>436.6</ele>
        <time>2014-09-14T12:33:20Z</time>
      </trkpt>
      <trkpt lat="47.80059" lon="6.9566">
        <ele>437.3</ele>
        <time>2014-09-14T12:33:36Z</time>
      </trkpt>
      <trkpt lat="47.80071" lon="6.95634">
        <ele>437.5</ele>
        <time>2014-09-14T12:33:53Z</time>
      </trkpt>
      <trkpt lat="47.80082" lon="6.95609">
        <ele>438.2</ele>
        <time>2014-09-14T12:34:09Z</time>
      </trkpt>
      <trkpt lat="47.80088" lon="6.95585">
        <ele>438.6</ele>
        <time>2014-09-14T12:34:23Z</time>
      </trkpt>
      <trkpt lat="47.80099" lon="6.95552">
        <ele>439.3</ele>
        <time>2014-09-14T12:34:40Z</time>
      </trkpt>
      <trkpt lat="47.80109" lon="6.95529">
        <ele>439.2</ele>
        <time>2014-09-14T12:34:55Z</time>
      </trkpt>
      <trkpt lat="47.80124" lon="6.95507">
        <ele>438.7</ele>
        <time>2014-09-14T12:35:13Z</time>
      </trkpt>
      <trkpt lat="47.8014" lon="6.95482">
        <ele>439.1</ele>
        <time>2014-09-14T12:35:31Z</time>
      </trkpt>
      <trkpt lat="47.80151" lon="6.95462">
        <ele>439.7</ele>
        <time>2014-09-14T12:35:45Z</time>
      </trkpt>
      <trkpt lat="47.80166" lon="6.95442">
        <ele>440.9</ele>
        <time>2014-09-14T12:36:02Z</time>
      </trkpt>
      <trkpt lat="47.80177" lon="6.95424">
        <ele>441.8</ele>
        <time>2014-09-14T12:36:16Z</time>
      </trkpt>
      <trkpt lat="47.80165" lon="6.95404">
        <ele>442.7</ele>
        <time>2014-09-14T12:36:31Z</time>
      </trkpt>
      <trkpt lat="47.80156" lon="6.95396">
        <ele>441.5</ele>
        <time>2014-09-14T12:36:40Z</time>
      </trkpt>
      <trkpt lat="47.80141" lon="6.95384">
        <ele>438.7</ele>
        <time>2014-09-14T12:36:55Z</time>
      </trkpt>
      <trkpt lat="47.80121" lon="6.95367">
        <ele>438.4</ele>
        <time>2014-09-14T12:37:14Z</time>
      </trkpt>
      <trkpt lat="47.801" lon="6.95348">
        <ele>437.6</ele>
        <time>2014-09-14T12:37:35Z</time>
      </trkpt>
      <trkpt lat="47.8008" lon="6.9535">
        <ele>436.2</ele>
        <time>2014-09-14T12:37:53Z</time>
      </trkpt>
      <trkpt lat="47.80061" lon="6.95352">
        <ele>435.2</ele>
        <time>2014-09-14T12:38:09Z</time>
      </trkpt>
      <trkpt lat="47.80039" lon="6.95356">
        <ele>434</ele>
        <time>2014-09-14T12:38:27Z</time>
      </trkpt>
      <trkpt lat="47.80019" lon="6.95347">
        <ele>432.5</ele>
        <time>2014-09-14T12:38:47Z</time>
      </trkpt>
      <trkpt lat="47.80001" lon="6.95325">
        <ele>432.4</ele>
        <time>2014-09-14T12:39:03Z</time>
      </trkpt>
      <trkpt lat="47.80001" lon="6.95304">
        <ele>433.9</ele>
        <time>2014-09-14T12:39:19Z</time>
      </trkpt>
      <trkpt lat="47.80006" lon="6.95283">
        <ele>434.4</ele>
        <time>2014-09-14T12:39:33Z</time>
      </trkpt>
      <trkpt lat="47.80004" lon="6.95257">
        <ele>434.6</ele>
        <time>2014-09-14T12:39:49Z</time>
      </trkpt>
      <trkpt lat="47.80004" lon="6.95257">
        <ele>434.6</ele>
        <time>2014-09-14T12:39:56Z</time>
      </trkpt>
      <trkpt lat="47.80004" lon="6.95257">
        <ele>434.6</ele>
        <time>2014-09-14T12:39:57Z</time>
      </trkpt>
      <trkpt lat="47.79974" lon="6.95241">
        <ele>436.1</ele>
        <time>2014-09-14T12:42:17Z</time>
      </trkpt>
      <trkpt lat="47.79965" lon="6.95233">
        <ele>435.7</ele>
        <time>2014-09-14T12:42:33Z</time>
      </trkpt>
      <trkpt lat="47.79969" lon="6.95199">
        <ele>436.7</ele>
        <time>2014-09-14T12:43:01Z</time>
      </trkpt>
      <trkpt lat="47.79977" lon="6.95183">
        <ele>442.6</ele>
        <time>2014-09-14T12:43:13Z</time>
      </trkpt>
      <trkpt lat="47.79988" lon="6.95159">
        <ele>445.3</ele>
        <time>2014-09-14T12:43:32Z</time>
      </trkpt>
      <trkpt lat="47.79995" lon="6.95142">
        <ele>444.5</ele>
        <time>2014-09-14T12:43:44Z</time>
      </trkpt>
      <trkpt lat="47.80003" lon="6.9513">
        <ele>443.1</ele>
        <time>2014-09-14T12:43:55Z</time>
      </trkpt>
      <trkpt lat="47.80008" lon="6.95104">
        <ele>440.2</ele>
        <time>2014-09-14T12:44:13Z</time>
      </trkpt>
      <trkpt lat="47.8001" lon="6.95082">
        <ele>437.8</ele>
        <time>2014-09-14T12:44:29Z</time>
      </trkpt>
      <trkpt lat="47.8001" lon="6.95082">
        <ele>461.7</ele>
        <time>2014-09-14T12:44:45Z</time>
      </trkpt>
      <trkpt lat="47.8001" lon="6.95082">
        <ele>461.7</ele>
        <time>2014-09-14T12:44:47Z</time>
      </trkpt>
    </trkseg>
  </trk>
</gpx>